sensor_id;sensor_type;location;lat;lon;timestamp;pressure;altitude;pressure_sealevel;temperature;humidity
10014;BME280;45684;48.358;10.746;2023-02-17T00:00:54;97098.78;;;6.98;100.00
10014;BME280;45684;48.358;10.746;2023-02-17T00:06:11;97107.13;;;6.97;100.00
10014;BME280;45684;48.358;10.746;2023-02-17T00:08:39;97100.66;;;6.93;100.00
10014;BME280;45684;48.358;10.746;2023-02-17T00:11:07;97104.69;;;6.90;100.00
10014;BME280;45684;48.358;10.746;2023-02-17T00:13:34;97095.56;;;6.86;100.00
10014;BME280;45684;48.358;10.746;2023-02-17T00:16:05;97099.84;;;6.87;100.00
10014;BME280;45684;48.358;10.746;2023-02-17T00:18:34;97107.38;;;6.90;100.00
10014;BME280;45684;48.358;10.746;2023-02-17T00:21:12;97093.41;;;6.93;100.00
10014;BME280;45684;48.358;10.746;2023-02-17T00:23:41;97103.34;;;6.98;100.00
10014;BME280;45684;48.358;10.746;2023-02-17T00:26:09;97097.94;;;7.08;100.00
10014;BME280;45684;48.358;10.746;2023-02-17T00:28:37;97104.38;;;7.22;99.27
10014;BME280;45684;48.358;10.746;2023-02-17T00:31:07;97107.34;;;7.31;98.76
10014;BME280;45684;48.358;10.746;2023-02-17T00:33:35;97101.44;;;7.34;98.76
10014;BME280;45684;48.358;10.746;2023-02-17T00:36:05;97103.31;;;7.38;98.55
10014;BME280;45684;48.358;10.746;2023-02-17T00:38:34;97101.13;;;7.40;98.57
10014;BME280;45684;48.358;10.746;2023-02-17T00:41:03;97104.91;;;7.45;98.65
10014;BME280;45684;48.358;10.746;2023-02-17T00:43:31;97107.84;;;7.48;98.53
10014;BME280;45684;48.358;10.746;2023-02-17T00:45:59;97105.44;;;7.52;97.60
10014;BME280;45684;48.358;10.746;2023-02-17T00:48:30;97097.59;;;7.55;97.22
10014;BME280;45684;48.358;10.746;2023-02-17T00:50:58;97097.06;;;7.58;96.67
10014;BME280;45684;48.358;10.746;2023-02-17T00:53:26;97088.97;;;7.63;95.66
10014;BME280;45684;48.358;10.746;2023-02-17T00:55:55;97095.41;;;7.67;94.83
10014;BME280;45684;48.358;10.746;2023-02-17T00:58:23;97088.13;;;7.68;94.81
10014;BME280;45684;48.358;10.746;2023-02-17T01:00:52;97092.72;;;7.67;95.83
10014;BME280;45684;48.358;10.746;2023-02-17T01:03:21;97094.88;;;7.71;94.87
10014;BME280;45684;48.358;10.746;2023-02-17T01:05:50;97090.59;;;7.70;94.90
10014;BME280;45684;48.358;10.746;2023-02-17T01:08:18;97093.78;;;7.77;93.30
10014;BME280;45684;48.358;10.746;2023-02-17T01:10:47;97101.31;;;7.80;92.92
10014;BME280;45684;48.358;10.746;2023-02-17T01:13:17;97097.81;;;7.79;93.70
10014;BME280;45684;48.358;10.746;2023-02-17T01:15:48;97106.41;;;7.81;93.57
10014;BME280;45684;48.358;10.746;2023-02-17T01:18:18;97111.50;;;7.83;92.79
10014;BME280;45684;48.358;10.746;2023-02-17T01:20:48;97105.59;;;7.86;92.37
10014;BME280;45684;48.358;10.746;2023-02-17T01:23:16;97098.56;;;7.90;91.00
10014;BME280;45684;48.358;10.746;2023-02-17T01:25:45;97091.59;;;7.89;92.11
10014;BME280;45684;48.358;10.746;2023-02-17T01:28:18;97097.47;;;7.91;91.00
10014;BME280;45684;48.358;10.746;2023-02-17T01:30:46;97089.66;;;7.95;90.07
10014;BME280;45684;48.358;10.746;2023-02-17T01:33:15;97098.00;;;7.98;89.31
10014;BME280;45684;48.358;10.746;2023-02-17T01:35:44;97101.50;;;7.99;90.26
10014;BME280;45684;48.358;10.746;2023-02-17T01:38:11;97099.91;;;7.98;91.22
10014;BME280;45684;48.358;10.746;2023-02-17T01:40:45;97107.72;;;7.94;92.88
10014;BME280;45684;48.358;10.746;2023-02-17T01:43:16;97100.16;;;7.96;92.39
10014;BME280;45684;48.358;10.746;2023-02-17T01:45:50;97095.06;;;7.95;92.72
10014;BME280;45684;48.358;10.746;2023-02-17T01:48:20;97097.19;;;7.98;92.95
10014;BME280;45684;48.358;10.746;2023-02-17T01:50:53;97085.09;;;7.95;93.47
10014;BME280;45684;48.358;10.746;2023-02-17T01:53:26;97092.66;;;7.93;94.77
10014;BME280;45684;48.358;10.746;2023-02-17T01:55:56;97084.00;;;7.91;95.16
10014;BME280;45684;48.358;10.746;2023-02-17T01:58:26;97077.03;;;7.90;95.41
10014;BME280;45684;48.358;10.746;2023-02-17T02:00:56;97078.63;;;7.91;94.21
10014;BME280;45684;48.358;10.746;2023-02-17T02:03:27;97072.97;;;7.92;94.34
10014;BME280;45684;48.358;10.746;2023-02-17T02:05:57;97073.50;;;7.95;94.00
10014;BME280;45684;48.358;10.746;2023-02-17T02:08:27;97066.50;;;7.93;94.36
10014;BME280;45684;48.358;10.746;2023-02-17T02:10:57;97063.25;;;7.97;94.63
10014;BME280;45684;48.358;10.746;2023-02-17T02:13:27;97065.44;;;7.95;95.15
10014;BME280;45684;48.358;10.746;2023-02-17T02:15:59;97068.13;;;7.95;95.32
10014;BME280;45684;48.358;10.746;2023-02-17T02:18:43;97057.34;;;7.95;94.86
10014;BME280;45684;48.358;10.746;2023-02-17T02:21:31;97048.97;;;7.96;94.77
10014;BME280;45684;48.358;10.746;2023-02-17T02:24:13;97037.66;;;7.99;92.30
10014;BME280;45684;48.358;10.746;2023-02-17T02:27:20;97037.59;;;8.09;91.19
10014;BME280;45684;48.358;10.746;2023-02-17T02:32:56;97038.66;;;8.13;90.97
10014;BME280;45684;48.358;10.746;2023-02-17T02:35:31;97029.78;;;8.13;90.55
10014;BME280;45684;48.358;10.746;2023-02-17T02:38:05;97035.97;;;8.13;90.34
10014;BME280;45684;48.358;10.746;2023-02-17T02:40:40;97038.13;;;8.16;89.57
10014;BME280;45684;48.358;10.746;2023-02-17T02:43:11;97029.22;;;8.16;88.89
10014;BME280;45684;48.358;10.746;2023-02-17T02:45:40;97025.69;;;8.15;87.73
10014;BME280;45684;48.358;10.746;2023-02-17T02:48:09;97025.16;;;8.18;86.47
10014;BME280;45684;48.358;10.746;2023-02-17T02:50:56;97027.03;;;8.18;86.11
10014;BME280;45684;48.358;10.746;2023-02-17T02:53:48;97032.94;;;8.20;85.77
10014;BME280;45684;48.358;10.746;2023-02-17T02:56:26;97026.22;;;8.23;84.72
10014;BME280;45684;48.358;10.746;2023-02-17T02:59:01;97016.75;;;8.25;83.90
10014;BME280;45684;48.358;10.746;2023-02-17T03:01:38;97022.38;;;8.29;81.73
10014;BME280;45684;48.358;10.746;2023-02-17T03:04:12;97017.50;;;8.36;80.13
10014;BME280;45684;48.358;10.746;2023-02-17T03:06:46;97014.00;;;8.35;80.65
10014;BME280;45684;48.358;10.746;2023-02-17T03:09:19;97012.66;;;8.33;81.13
10014;BME280;45684;48.358;10.746;2023-02-17T03:11:48;97006.22;;;8.29;81.91
10014;BME280;45684;48.358;10.746;2023-02-17T03:14:19;97003.00;;;8.27;82.65
10014;BME280;45684;48.358;10.746;2023-02-17T03:16:48;97009.47;;;8.31;80.45
10014;BME280;45684;48.358;10.746;2023-02-17T03:19:21;97008.38;;;8.32;80.69
10014;BME280;45684;48.358;10.746;2023-02-17T03:21:52;97005.38;;;8.33;79.68
10014;BME280;45684;48.358;10.746;2023-02-17T03:24:23;97005.66;;;8.32;79.89
10014;BME280;45684;48.358;10.746;2023-02-17T03:26:51;96997.88;;;8.30;80.41
10014;BME280;45684;48.358;10.746;2023-02-17T03:29:19;97000.56;;;8.30;81.54
10014;BME280;45684;48.358;10.746;2023-02-17T03:31:47;97006.22;;;8.29;79.92
10014;BME280;45684;48.358;10.746;2023-02-17T03:34:15;96998.94;;;8.29;79.90
10014;BME280;45684;48.358;10.746;2023-02-17T03:36:45;96998.69;;;8.31;80.10
10014;BME280;45684;48.358;10.746;2023-02-17T03:39:12;97002.69;;;8.33;80.05
10014;BME280;45684;48.358;10.746;2023-02-17T03:41:40;96999.13;;;8.43;77.85
10014;BME280;45684;48.358;10.746;2023-02-17T03:44:08;97001.31;;;8.41;78.35
10014;BME280;45684;48.358;10.746;2023-02-17T03:46:37;96984.84;;;8.42;76.60
10014;BME280;45684;48.358;10.746;2023-02-17T03:49:05;97001.28;;;8.46;77.23
10014;BME280;45684;48.358;10.746;2023-02-17T03:51:33;97006.13;;;8.49;77.09
10014;BME280;45684;48.358;10.746;2023-02-17T03:54:02;96994.78;;;8.47;77.39
10014;BME280;45684;48.358;10.746;2023-02-17T03:56:30;96995.88;;;8.46;77.13
10014;BME280;45684;48.358;10.746;2023-02-17T03:58:58;96995.38;;;8.44;78.11
10014;BME280;45684;48.358;10.746;2023-02-17T04:01:26;96998.06;;;8.44;77.88
10014;BME280;45684;48.358;10.746;2023-02-17T04:03:54;96999.38;;;8.47;77.19
10014;BME280;45684;48.358;10.746;2023-02-17T04:06:22;96993.16;;;8.51;76.94
10014;BME280;45684;48.358;10.746;2023-02-17T04:08:50;96997.44;;;8.52;77.83
10014;BME280;45684;48.358;10.746;2023-02-17T04:11:19;96994.75;;;8.52;77.82
10014;BME280;45684;48.358;10.746;2023-02-17T04:13:47;96997.44;;;8.52;77.74
10014;BME280;45684;48.358;10.746;2023-02-17T04:16:15;97002.84;;;8.52;78.26
10014;BME280;45684;48.358;10.746;2023-02-17T04:18:43;96993.16;;;8.51;78.79
10014;BME280;45684;48.358;10.746;2023-02-17T04:21:12;96987.41;;;8.58;78.96
10014;BME280;45684;48.358;10.746;2023-02-17T04:23:40;96992.00;;;8.57;80.28
10014;BME280;45684;48.358;10.746;2023-02-17T04:26:08;96990.13;;;8.58;79.28
10014;BME280;45684;48.358;10.746;2023-02-17T04:28:38;96992.81;;;8.58;79.46
10014;BME280;45684;48.358;10.746;2023-02-17T04:31:07;96992.56;;;8.59;80.50
10014;BME280;45684;48.358;10.746;2023-02-17T04:33:35;96989.84;;;8.59;80.69
10014;BME280;45684;48.358;10.746;2023-02-17T04:36:04;96989.25;;;8.62;80.44
10014;BME280;45684;48.358;10.746;2023-02-17T04:38:33;96982.81;;;8.63;79.50
10014;BME280;45684;48.358;10.746;2023-02-17T04:41:04;96992.50;;;8.64;80.29
10014;BME280;45684;48.358;10.746;2023-02-17T04:43:33;96994.66;;;8.67;79.45
10014;BME280;45684;48.358;10.746;2023-02-17T04:46:02;96990.25;;;8.72;79.76
10014;BME280;45684;48.358;10.746;2023-02-17T04:48:31;96990.00;;;8.73;79.85
10014;BME280;45684;48.358;10.746;2023-02-17T04:50:58;96982.97;;;8.77;79.72
10014;BME280;45684;48.358;10.746;2023-02-17T04:53:26;96977.22;;;8.84;79.53
10014;BME280;45684;48.358;10.746;2023-02-17T04:55:54;96977.72;;;8.86;80.91
10014;BME280;45684;48.358;10.746;2023-02-17T04:58:22;96984.81;;;8.82;81.93
10014;BME280;45684;48.358;10.746;2023-02-17T05:00:50;96974.81;;;8.82;82.28
10014;BME280;45684;48.358;10.746;2023-02-17T05:03:19;96975.91;;;8.81;83.06
10014;BME280;45684;48.358;10.746;2023-02-17T05:05:48;96976.13;;;8.85;82.67
10014;BME280;45684;48.358;10.746;2023-02-17T05:08:16;96971.81;;;8.84;82.80
10014;BME280;45684;48.358;10.746;2023-02-17T05:10:43;96974.81;;;8.82;83.69
10014;BME280;45684;48.358;10.746;2023-02-17T05:13:11;96974.22;;;8.85;83.76
10014;BME280;45684;48.358;10.746;2023-02-17T05:15:41;96972.88;;;8.88;83.66
10014;BME280;45684;48.358;10.746;2023-02-17T05:18:10;96979.31;;;8.92;84.88
10014;BME280;45684;48.358;10.746;2023-02-17T05:20:39;96969.75;;;9.00;89.22
10014;BME280;45684;48.358;10.746;2023-02-17T05:23:07;96967.41;;;8.93;92.12
10014;BME280;45684;48.358;10.746;2023-02-17T05:25:35;96977.72;;;8.86;95.67
10014;BME280;45684;48.358;10.746;2023-02-17T05:28:03;96974.00;;;8.82;97.70
10014;BME280;45684;48.358;10.746;2023-02-17T05:30:31;96975.13;;;8.76;99.12
10014;BME280;45684;48.358;10.746;2023-02-17T05:32:59;96978.69;;;8.71;100.00
10014;BME280;45684;48.358;10.746;2023-02-17T05:35:27;96974.94;;;8.67;99.90
10014;BME280;45684;48.358;10.746;2023-02-17T05:37:56;96980.38;;;8.62;100.00
10014;BME280;45684;48.358;10.746;2023-02-17T05:40:24;96978.03;;;8.55;100.00
10014;BME280;45684;48.358;10.746;2023-02-17T05:42:52;96971.53;;;8.56;98.93
10014;BME280;45684;48.358;10.746;2023-02-17T05:45:20;96971.53;;;8.56;98.11
10014;BME280;45684;48.358;10.746;2023-02-17T05:47:48;96970.97;;;8.59;95.36
10014;BME280;45684;48.358;10.746;2023-02-17T05:50:16;96976.63;;;8.63;93.81
10014;BME280;45684;48.358;10.746;2023-02-17T05:52:44;96979.25;;;8.68;92.31
10014;BME280;45684;48.358;10.746;2023-02-17T05:55:13;96983.03;;;8.67;92.43
10014;BME280;45684;48.358;10.746;2023-02-17T05:57:41;96992.16;;;8.71;89.47
10014;BME280;45684;48.358;10.746;2023-02-17T06:00:10;96989.19;;;8.73;88.88
10014;BME280;45684;48.358;10.746;2023-02-17T06:02:38;96992.34;;;8.80;87.68
10014;BME280;45684;48.358;10.746;2023-02-17T06:05:06;96993.97;;;8.81;87.80
10014;BME280;45684;48.358;10.746;2023-02-17T06:07:35;96989.66;;;8.80;87.07
10014;BME280;45684;48.358;10.746;2023-02-17T06:10:03;96999.34;;;8.81;86.67
10014;BME280;45684;48.358;10.746;2023-02-17T06:12:32;96999.09;;;8.82;86.11
10014;BME280;45684;48.358;10.746;2023-02-17T06:15:00;96992.34;;;8.80;86.76
10014;BME280;45684;48.358;10.746;2023-02-17T06:17:29;96995.59;;;8.82;86.19
10014;BME280;45684;48.358;10.746;2023-02-17T06:19:56;96992.34;;;8.80;86.74
10014;BME280;45684;48.358;10.746;2023-02-17T06:22:24;96995.00;;;8.85;85.98
10014;BME280;45684;48.358;10.746;2023-02-17T06:24:52;96999.59;;;8.84;86.69
10014;BME280;45684;48.358;10.746;2023-02-17T06:27:20;96990.94;;;8.87;85.61
10014;BME280;45684;48.358;10.746;2023-02-17T06:29:49;96984.47;;;8.88;85.82
10014;BME280;45684;48.358;10.746;2023-02-17T06:32:17;96992.25;;;8.90;86.40
10014;BME280;45684;48.358;10.746;2023-02-17T06:34:45;96983.91;;;8.91;85.80
10014;BME280;45684;48.358;10.746;2023-02-17T06:37:13;96987.09;;;8.93;86.03
10014;BME280;45684;48.358;10.746;2023-02-17T06:39:41;96988.44;;;8.96;86.07
10014;BME280;45684;48.358;10.746;2023-02-17T06:42:08;96989.00;;;8.93;87.36
10014;BME280;45684;48.358;10.746;2023-02-17T06:44:36;96994.28;;;9.03;86.81
10014;BME280;45684;48.358;10.746;2023-02-17T06:47:05;96993.72;;;9.06;87.04
10014;BME280;45684;48.358;10.746;2023-02-17T06:49:33;97005.81;;;9.09;88.07
10014;BME280;45684;48.358;10.746;2023-02-17T06:52:01;97000.72;;;9.07;88.22
10014;BME280;45684;48.358;10.746;2023-02-17T06:54:29;97002.31;;;9.08;88.37
10014;BME280;45684;48.358;10.746;2023-02-17T06:56:57;97009.06;;;9.11;88.71
10014;BME280;45684;48.358;10.746;2023-02-17T06:59:24;96996.66;;;9.10;89.01
10014;BME280;45684;48.358;10.746;2023-02-17T07:01:52;96998.50;;;9.14;88.42
10014;BME280;45684;48.358;10.746;2023-02-17T07:04:21;96994.94;;;9.19;87.73
10014;BME280;45684;48.358;10.746;2023-02-17T07:06:49;97001.09;;;9.25;87.72
10014;BME280;45684;48.358;10.746;2023-02-17T07:09:18;96994.59;;;9.26;87.75
10014;BME280;45684;48.358;10.746;2023-02-17T07:11:45;97005.31;;;9.31;87.40
10014;BME280;45684;48.358;10.746;2023-02-17T07:14:13;97001.53;;;9.32;89.49
10014;BME280;45684;48.358;10.746;2023-02-17T07:16:41;97000.47;;;9.33;88.87
10014;BME280;45684;48.358;10.746;2023-02-17T07:19:09;97001.25;;;9.33;89.30
10014;BME280;45684;48.358;10.746;2023-02-17T07:21:38;97000.16;;;9.34;92.05
10014;BME280;45684;48.358;10.746;2023-02-17T07:24:06;97002.06;;;9.34;95.13
10014;BME280;45684;48.358;10.746;2023-02-17T07:26:35;96993.22;;;9.28;96.22
10014;BME280;45684;48.358;10.746;2023-02-17T07:29:03;96996.13;;;9.32;94.72
10014;BME280;45684;48.358;10.746;2023-02-17T07:31:32;96994.78;;;9.34;92.91
10014;BME280;45684;48.358;10.746;2023-02-17T07:34:01;96997.72;;;9.38;92.09
10014;BME280;45684;48.358;10.746;2023-02-17T07:36:29;97007.34;;;9.44;92.01
10014;BME280;45684;48.358;10.746;2023-02-17T07:38:58;97008.94;;;9.45;91.53
10014;BME280;45684;48.358;10.746;2023-02-17T07:41:26;97011.94;;;9.43;90.88
10014;BME280;45684;48.358;10.746;2023-02-17T07:43:57;97007.56;;;9.48;91.15
10014;BME280;45684;48.358;10.746;2023-02-17T07:46:26;97007.84;;;9.46;90.44
10014;BME280;45684;48.358;10.746;2023-02-17T07:48:55;97007.56;;;9.48;89.80
10014;BME280;45684;48.358;10.746;2023-02-17T07:51:23;97009.34;;;9.57;87.51
10014;BME280;45684;48.358;10.746;2023-02-17T07:53:51;97017.38;;;9.62;87.21
10014;BME280;45684;48.358;10.746;2023-02-17T07:56:22;97019.72;;;9.69;88.07
10014;BME280;45684;48.358;10.746;2023-02-17T07:58:50;97018.84;;;9.74;89.95
10014;BME280;45684;48.358;10.746;2023-02-17T08:01:20;97021.00;;;9.77;89.03
10014;BME280;45684;48.358;10.746;2023-02-17T08:03:49;97023.69;;;9.77;89.79
10014;BME280;45684;48.358;10.746;2023-02-17T08:06:19;97026.41;;;9.77;93.68
10014;BME280;45684;48.358;10.746;2023-02-17T08:08:48;97029.09;;;9.77;96.34
10014;BME280;45684;48.358;10.746;2023-02-17T08:11:35;97024.25;;;9.74;95.95
10014;BME280;45684;48.358;10.746;2023-02-17T08:14:21;97029.09;;;9.77;95.63
10014;BME280;45684;48.358;10.746;2023-02-17T08:16:49;97028.22;;;9.81;92.69
10014;BME280;45684;48.358;10.746;2023-02-17T08:19:17;97024.66;;;9.86;92.92
10014;BME280;45684;48.358;10.746;2023-02-17T08:21:45;97025.69;;;9.90;91.92
10014;BME280;45684;48.358;10.746;2023-02-17T08:24:13;97027.22;;;9.96;90.93
10014;BME280;45684;48.358;10.746;2023-02-17T08:26:43;97030.94;;;10.00;90.35
10014;BME280;45684;48.358;10.746;2023-02-17T08:29:11;97031.97;;;10.04;91.59
10014;BME280;45684;48.358;10.746;2023-02-17T08:31:40;97033.66;;;10.00;100.00
10014;BME280;45684;48.358;10.746;2023-02-17T08:34:10;97033.19;;;9.93;100.00
10014;BME280;45684;48.358;10.746;2023-02-17T08:36:38;97029.19;;;9.90;100.00
10014;BME280;45684;48.358;10.746;2023-02-17T08:39:13;97042.41;;;9.92;100.00
10014;BME280;45684;48.358;10.746;2023-02-17T08:41:43;97034.81;;;9.94;100.00
10014;BME280;45684;48.358;10.746;2023-02-17T08:44:12;97039.13;;;9.95;100.00
10014;BME280;45684;48.358;10.746;2023-02-17T08:46:41;97043.13;;;9.97;100.00
10014;BME280;45684;48.358;10.746;2023-02-17T08:49:09;97036.06;;;10.02;100.00
10014;BME280;45684;48.358;10.746;2023-02-17T08:51:37;97046.00;;;10.06;100.00
10014;BME280;45684;48.358;10.746;2023-02-17T08:54:07;97050.81;;;10.09;100.00
10014;BME280;45684;48.358;10.746;2023-02-17T08:56:37;97039.38;;;10.17;99.61
10014;BME280;45684;48.358;10.746;2023-02-17T08:59:07;97039.81;;;10.25;99.15
10014;BME280;45684;48.358;10.746;2023-02-17T09:01:36;97039.47;;;10.31;96.98
10014;BME280;45684;48.358;10.746;2023-02-17T09:04:06;97053.41;;;10.38;97.39
10014;BME280;45684;48.358;10.746;2023-02-17T09:06:37;97042.84;;;10.42;97.14
10014;BME280;45684;48.358;10.746;2023-02-17T09:09:08;97041.22;;;10.41;94.44
10014;BME280;45684;48.358;10.746;2023-02-17T09:11:36;97042.84;;;10.42;95.14
10014;BME280;45684;48.358;10.746;2023-02-17T09:14:06;97049.75;;;10.48;93.84
10014;BME280;45684;48.358;10.746;2023-02-17T09:16:35;97057.53;;;10.55;94.34
10014;BME280;45684;48.358;10.746;2023-02-17T09:19:06;97056.78;;;10.68;93.40
10014;BME280;45684;48.358;10.746;2023-02-17T09:21:35;97056.81;;;10.82;91.81
10014;BME280;45684;48.358;10.746;2023-02-17T09:24:03;97058.66;;;11.00;91.34
10014;BME280;45684;48.358;10.746;2023-02-17T09:26:31;97062.44;;;11.18;90.96
10014;BME280;45684;48.358;10.746;2023-02-17T09:29:01;97059.75;;;11.32;90.44
10014;BME280;45684;48.358;10.746;2023-02-17T09:31:31;97066.97;;;11.36;86.96
10014;BME280;45684;48.358;10.746;2023-02-17T09:34:01;97059.66;;;11.50;88.42
10014;BME280;45684;48.358;10.746;2023-02-17T09:36:31;97060.38;;;11.56;85.77
10014;BME280;45684;48.358;10.746;2023-02-17T09:39:00;97056.28;;;11.59;85.71
10014;BME280;45684;48.358;10.746;2023-02-17T09:41:33;97062.38;;;11.64;83.41
10014;BME280;45684;48.358;10.746;2023-02-17T09:44:05;97067.22;;;11.67;83.12
10014;BME280;45684;48.358;10.746;2023-02-17T09:46:40;97066.22;;;11.77;82.86
10014;BME280;45684;48.358;10.746;2023-02-17T09:49:31;97063.19;;;11.79;83.52
10014;BME280;45684;48.358;10.746;2023-02-17T09:52:05;97065.63;;;11.80;82.11
10014;BME280;45684;48.358;10.746;2023-02-17T09:54:40;97070.81;;;11.77;81.12
10014;BME280;45684;48.358;10.746;2023-02-17T09:57:13;97079.69;;;11.82;82.45
10014;BME280;45684;48.358;10.746;2023-02-17T09:59:47;97089.19;;;11.80;83.05
10014;BME280;45684;48.358;10.746;2023-02-17T10:02:24;97072.75;;;11.76;81.73
10014;BME280;45684;48.358;10.746;2023-02-17T10:04:56;97065.81;;;11.84;82.64
10014;BME280;45684;48.358;10.746;2023-02-17T10:07:30;97062.09;;;11.93;83.46
10014;BME280;45684;48.358;10.746;2023-02-17T10:10:04;97074.66;;;12.03;83.12
10014;BME280;45684;48.358;10.746;2023-02-17T10:12:37;97064.09;;;12.15;82.40
10014;BME280;45684;48.358;10.746;2023-02-17T10:15:09;97050.59;;;12.38;80.96
10014;BME280;45684;48.358;10.746;2023-02-17T10:17:48;97046.31;;;12.59;81.22
10014;BME280;45684;48.358;10.746;2023-02-17T10:20:21;97048.16;;;12.72;78.14
10014;BME280;45684;48.358;10.746;2023-02-17T10:22:52;97054.38;;;12.95;78.76
10014;BME280;45684;48.358;10.746;2023-02-17T10:25:30;97060.00;;;12.99;75.49
10014;BME280;45684;48.358;10.746;2023-02-17T10:28:07;97064.81;;;13.02;74.77
10014;BME280;45684;48.358;10.746;2023-02-17T10:30:42;97053.16;;;13.24;73.84
10014;BME280;45684;48.358;10.746;2023-02-17T10:33:22;97062.50;;;13.40;72.00
10014;BME280;45684;48.358;10.746;2023-02-17T10:35:55;97057.69;;;13.37;71.84
10014;BME280;45684;48.358;10.746;2023-02-17T10:38:36;97039.47;;;13.38;71.62
10014;BME280;45684;48.358;10.746;2023-02-17T10:41:13;97047.44;;;13.65;71.72
10014;BME280;45684;48.358;10.746;2023-02-17T10:43:43;97053.00;;;13.60;70.13
10014;BME280;45684;48.358;10.746;2023-02-17T10:46:12;97046.34;;;13.75;70.46
10014;BME280;45684;48.358;10.746;2023-02-17T10:48:45;97048.50;;;13.56;70.16
10014;BME280;45684;48.358;10.746;2023-02-17T10:51:17;97047.50;;;13.43;71.66
10014;BME280;45684;48.358;10.746;2023-02-17T10:53:50;97048.75;;;13.37;72.64
10014;BME280;45684;48.358;10.746;2023-02-17T10:56:22;97042.16;;;13.29;73.26
10014;BME280;45684;48.358;10.746;2023-02-17T10:58:57;97048.22;;;13.26;75.71
10014;BME280;45684;48.358;10.746;2023-02-17T11:01:28;97041.81;;;13.22;76.23
10014;BME280;45684;48.358;10.746;2023-02-17T11:04:03;97051.31;;;13.19;76.05
10014;BME280;45684;48.358;10.746;2023-02-17T11:06:36;97044.56;;;13.08;76.50
10014;BME280;45684;48.358;10.746;2023-02-17T11:09:06;97044.03;;;12.97;76.85
10014;BME280;45684;48.358;10.746;2023-02-17T11:11:50;97045.09;;;12.88;77.80
10014;BME280;45684;48.358;10.746;2023-02-17T11:14:25;97031.94;;;12.81;78.38
10014;BME280;45684;48.358;10.746;2023-02-17T11:16:56;97031.25;;;12.75;80.71
10014;BME280;45684;48.358;10.746;2023-02-17T11:19:28;97033.28;;;12.70;82.08
10014;BME280;45684;48.358;10.746;2023-02-17T11:21:58;97030.78;;;12.73;81.83
10014;BME280;45684;48.358;10.746;2023-02-17T11:24:26;97027.69;;;12.66;81.70
10014;BME280;45684;48.358;10.746;2023-02-17T11:26:59;97029.91;;;12.64;83.04
10014;BME280;45684;48.358;10.746;2023-02-17T11:29:28;97020.13;;;12.63;82.74
10014;BME280;45684;48.358;10.746;2023-02-17T11:31:58;97020.03;;;12.68;82.21
10014;BME280;45684;48.358;10.746;2023-02-17T11:34:29;97027.69;;;12.66;82.71
10014;BME280;45684;48.358;10.746;2023-02-17T11:37:00;97011.38;;;12.66;81.92
10014;BME280;45684;48.358;10.746;2023-02-17T11:39:28;97020.34;;;12.67;81.79
10014;BME280;45684;48.358;10.746;2023-02-17T11:41:56;97025.56;;;12.63;83.53
10014;BME280;45684;48.358;10.746;2023-02-17T11:44:26;97014.22;;;12.61;82.03
10014;BME280;45684;48.358;10.746;2023-02-17T11:47:04;97008.94;;;12.56;82.43
10014;BME280;45684;48.358;10.746;2023-02-17T11:49:48;97001.91;;;12.55;83.76
10014;BME280;45684;48.358;10.746;2023-02-17T11:52:27;97005.78;;;12.63;82.10
10014;BME280;45684;48.358;10.746;2023-02-17T11:55:11;97000.53;;;12.66;82.98
10014;BME280;45684;48.358;10.746;2023-02-17T11:57:44;97004.84;;;12.67;82.89
10014;BME280;45684;48.358;10.746;2023-02-17T12:00:19;97008.56;;;12.71;81.97
10014;BME280;45684;48.358;10.746;2023-02-17T12:05:54;97007.09;;;12.65;83.78
10014;BME280;45684;48.358;10.746;2023-02-17T12:08:35;96996.41;;;12.69;83.62
10014;BME280;45684;48.358;10.746;2023-02-17T12:11:14;97005.97;;;12.66;83.93
10014;BME280;45684;48.358;10.746;2023-02-17T12:13:54;97002.78;;;12.64;83.85
10014;BME280;45684;48.358;10.746;2023-02-17T12:16:37;96989.69;;;12.66;85.40
10014;BME280;45684;48.358;10.746;2023-02-17T12:22:04;96986.97;;;12.89;84.27
10014;BME280;45684;48.358;10.746;2023-02-17T12:24:43;96986.03;;;12.93;83.76
10014;BME280;45684;48.358;10.746;2023-02-17T12:27:23;96989.34;;;12.90;83.55
10014;BME280;45684;48.358;10.746;2023-02-17T12:30:02;96987.69;;;12.81;85.39
10014;BME280;45684;48.358;10.746;2023-02-17T12:32:47;96986.78;;;12.85;85.61
10014;BME280;45684;48.358;10.746;2023-02-17T12:35:22;96984.56;;;12.87;86.75
10014;BME280;45684;48.358;10.746;2023-02-17T12:37:55;96992.13;;;12.76;87.47
10014;BME280;45684;48.358;10.746;2023-02-17T12:40:31;96990.06;;;12.73;86.58
10014;BME280;45684;48.358;10.746;2023-02-17T12:43:06;96988.75;;;12.71;87.81
10014;BME280;45684;48.358;10.746;2023-02-17T12:45:38;96991.47;;;12.71;87.65
10014;BME280;45684;48.358;10.746;2023-02-17T12:48:12;96988.09;;;12.65;87.01
10014;BME280;45684;48.358;10.746;2023-02-17T12:50:51;96995.16;;;12.75;88.44
10014;BME280;45684;48.358;10.746;2023-02-17T12:53:30;97000.66;;;12.84;87.06
10014;BME280;45684;48.358;10.746;2023-02-17T12:56:03;96995.09;;;12.89;87.22
10014;BME280;45684;48.358;10.746;2023-02-17T12:58:34;96993.50;;;12.88;87.40
10014;BME280;45684;48.358;10.746;2023-02-17T13:01:05;96980.91;;;12.92;87.99
10014;BME280;45684;48.358;10.746;2023-02-17T13:03:36;96989.41;;;12.99;88.03
10014;BME280;45684;48.358;10.746;2023-02-17T13:06:13;96978.34;;;12.95;86.14
10014;BME280;45684;48.358;10.746;2023-02-17T13:08:50;96978.19;;;12.92;86.59
10014;BME280;45684;48.358;10.746;2023-02-17T13:11:26;96980.72;;;12.88;86.95
10014;BME280;45684;48.358;10.746;2023-02-17T13:13:54;96990.09;;;12.82;87.23
10014;BME280;45684;48.358;10.746;2023-02-17T13:16:22;96983.38;;;12.80;88.15
10014;BME280;45684;48.358;10.746;2023-02-17T13:18:50;96982.84;;;12.69;89.00
10014;BME280;45684;48.358;10.746;2023-02-17T13:21:26;96980.44;;;12.67;89.17
10014;BME280;45684;48.358;10.746;2023-02-17T13:24:02;96979.75;;;12.62;89.75
10014;BME280;45684;48.358;10.746;2023-02-17T13:26:33;96974.53;;;12.65;90.10